Time;durP1;ratioP1;P1;durP2;ratioP2;P2;SDS_P1;SDS_P2;PMS_P1;PMS_P2;Temp;Humidity;BMP_temperature;BMP_pressure;BME280_temperature;BME280_humidity;BME280_pressure;Samples;Min_cycle;Max_cycle;Signal;HPM_P1;HPM_P2
2022/04/15 00:00:26;;;;;;;5.43;3.22;;;15.80;63.90;;;;;;4999589;28;20556;-89
2022/04/15 00:02:52;;;;;;;6.45;3.53;;;15.70;64.00;;;;;;5042771;28;20033;-89
2022/04/15 00:05:37;;;;;;;5.45;3.25;;;15.70;64.00;;;;;;5018630;28;20029;-89
2022/04/15 00:08:07;;;;;;;4.05;3.22;;;15.80;64.10;;;;;;5008380;28;20110;-90
2022/04/15 00:10:34;;;;;;;3.83;2.85;;;15.80;64.40;;;;;;5000121;28;20054;-89
2022/04/15 00:13:01;;;;;;;4.93;3.50;;;15.80;64.60;;;;;;4999117;28;20098;-89
2022/04/15 00:15:29;;;;;;;5.28;3.20;;;15.80;64.60;;;;;;4999464;28;20113;-89
2022/04/15 00:17:55;;;;;;;9.60;4.07;;;15.80;64.70;;;;;;5011656;28;20066;-89
2022/04/15 00:20:21;;;;;;;5.82;3.67;;;15.80;64.60;;;;;;5000615;28;20029;-90
2022/04/15 00:22:48;;;;;;;5.15;3.97;;;15.80;64.70;;;;;;4999002;28;20027;-90
2022/04/15 00:25:16;;;;;;;7.45;3.83;;;15.80;65.00;;;;;;4999062;28;20034;-89
2022/04/15 00:27:41;;;;;;;6.03;4.30;;;15.80;64.80;;;;;;4999935;28;20038;-90
2022/04/15 00:30:09;;;;;;;4.43;3.65;;;15.80;65.10;;;;;;4998730;28;20722;-89
2022/04/15 00:32:35;;;;;;;7.32;3.75;;;15.80;64.80;;;;;;5000952;28;20032;-89
2022/04/15 00:35:02;;;;;;;6.65;3.85;;;15.80;64.80;;;;;;4998596;28;21021;-91
2022/04/15 00:37:28;;;;;;;5.30;3.38;;;15.90;64.60;;;;;;5000146;28;20055;-89
2022/04/15 00:39:54;;;;;;;6.45;3.47;;;15.90;65.30;;;;;;4998893;28;20022;-90
2022/04/15 00:42:25;;;;;;;4.90;3.35;;;15.80;64.80;;;;;;4999375;28;20478;-89
2022/04/15 00:44:57;;;;;;;6.40;3.45;;;15.80;65.70;;;;;;4999091;28;20026;-89
2022/04/15 00:47:50;;;;;;;6.03;3.85;;;15.80;65.40;;;;;;4998586;28;20126;-90
2022/04/15 00:50:37;;;;;;;7.07;3.92;;;15.80;65.70;;;;;;5000236;28;20030;-91
2022/04/15 00:53:08;;;;;;;5.57;3.58;;;15.80;65.80;;;;;;4998057;28;20046;-90
2022/04/15 00:55:34;;;;;;;4.90;3.38;;;15.90;65.20;;;;;;4999587;28;20030;-89
2022/04/15 00:58:02;;;;;;;4.53;3.55;;;15.80;65.40;;;;;;5013375;28;20030;-89
2022/04/15 01:00:30;;;;;;;8.32;3.95;;;15.80;65.60;;;;;;5014902;28;20022;-89
2022/04/15 01:03:01;;;;;;;7.93;3.80;;;15.80;65.40;;;;;;5013479;28;20034;-90
2022/04/15 01:05:27;;;;;;;6.68;3.30;;;15.80;65.90;;;;;;4999718;28;20457;-88
2022/04/15 01:08:00;;;;;;;5.38;3.47;;;15.80;65.70;;;;;;5007554;28;20076;-90
2022/04/15 01:10:26;;;;;;;6.68;4.10;;;15.80;65.30;;;;;;5016580;28;20061;-89
2022/04/15 01:12:57;;;;;;;6.53;3.47;;;15.80;66.20;;;;;;5019348;28;20076;-90
2022/04/15 01:15:26;;;;;;;5.13;3.10;;;15.80;66.30;;;;;;5016186;28;20546;-89
2022/04/15 01:17:52;;;;;;;6.28;3.65;;;15.80;66.00;;;;;;5018545;28;20026;-90
2022/04/15 01:20:18;;;;;;;4.63;3.50;;;15.70;66.00;;;;;;5003719;28;20026;-90
2022/04/15 01:23:11;;;;;;;5.65;3.72;;;15.70;65.70;;;;;;4998328;28;20042;-91
2022/04/15 01:25:37;;;;;;;7.00;3.40;;;15.70;66.40;;;;;;5037446;28;20030;-91
2022/04/15 01:28:04;;;;;;;10.13;4.18;;;15.70;66.20;;;;;;4998749;28;20440;-89
2022/04/15 01:30:30;;;;;;;7.00;3.38;;;15.70;66.10;;;;;;4998091;28;20030;-90
2022/04/15 01:32:55;;;;;;;6.05;3.58;;;15.60;66.60;;;;;;4997763;28;20038;-90
2022/04/15 01:35:21;;;;;;;6.95;4.18;;;15.60;67.30;;;;;;4999028;28;20054;-90
2022/04/15 01:37:48;;;;;;;6.32;3.50;;;15.50;67.50;;;;;;4997925;28;20444;-91
2022/04/15 01:40:17;;;;;;;5.70;3.78;;;15.50;67.70;;;;;;4998999;28;20029;-90
2022/04/15 01:42:44;;;;;;;5.20;3.75;;;15.50;67.70;;;;;;4997252;28;20046;-91
2022/04/15 01:45:13;;;;;;;7.90;4.10;;;15.50;67.50;;;;;;4998698;28;20577;-89
2022/04/15 01:47:39;;;;;;;7.85;4.05;;;15.50;68.20;;;;;;5003783;28;20030;-89
2022/04/15 01:50:07;;;;;;;4.93;3.45;;;15.40;67.80;;;;;;5015790;28;20079;-89
2022/04/15 01:52:33;;;;;;;5.55;3.90;;;15.40;67.10;;;;;;5018011;28;20034;-89
2022/04/15 01:54:59;;;;;;;6.75;3.88;;;15.40;67.50;;;;;;5013269;28;20121;-91
2022/04/15 01:57:25;;;;;;;4.97;3.70;;;15.30;67.90;;;;;;5009650;28;20500;-88
2022/04/15 01:59:51;;;;;;;5.25;3.42;;;15.30;67.80;;;;;;5005770;28;20025;-90
2022/04/15 02:02:20;;;;;;;7.40;3.80;;;15.30;67.70;;;;;;5017818;28;20036;-90
2022/04/15 02:04:46;;;;;;;3.97;2.90;;;15.20;67.70;;;;;;5015704;28;20049;-90
2022/04/15 02:07:12;;;;;;;3.78;2.83;;;15.20;67.70;;;;;;5016307;28;20025;-89
2022/04/15 02:09:37;;;;;;;7.13;3.75;;;15.10;67.30;;;;;;5018611;28;20030;-90
2022/04/15 02:12:03;;;;;;;4.75;3.42;;;15.00;68.40;;;;;;5015546;28;20022;-89
2022/04/15 02:14:29;;;;;;;5.53;3.83;;;14.80;68.60;;;;;;5017028;28;20550;-90
2022/04/15 02:16:54;;;;;;;7.43;3.40;;;14.80;69.10;;;;;;5015622;28;20026;-90
2022/04/15 02:19:28;;;;;;;5.72;3.72;;;14.80;68.80;;;;;;5017915;28;20025;-90
2022/04/15 02:21:53;;;;;;;5.68;3.42;;;14.80;68.70;;;;;;5000992;28;20034;-90
2022/04/15 02:24:19;;;;;;;4.85;3.25;;;14.80;68.70;;;;;;4997332;28;20030;-91
2022/04/15 02:26:45;;;;;;;5.80;3.72;;;14.70;68.90;;;;;;5043465;28;20024;-90
2022/04/15 02:29:10;;;;;;;5.07;3.55;;;14.70;68.20;;;;;;5011535;28;20069;-90
2022/04/15 02:31:36;;;;;;;5.05;4.00;;;14.60;68.80;;;;;;4998868;28;20023;-88
2022/04/15 02:34:02;;;;;;;5.38;4.05;;;14.50;69.10;;;;;;4997141;28;20827;-91
2022/04/15 02:36:28;;;;;;;4.82;4.03;;;14.50;69.00;;;;;;5012510;28;20436;-90
2022/04/15 02:38:53;;;;;;;5.50;3.92;;;14.40;68.90;;;;;;5015898;28;20045;-88
2022/04/15 02:41:19;;;;;;;4.63;3.50;;;14.40;69.40;;;;;;5048060;28;20428;-90
2022/04/15 02:43:45;;;;;;;7.07;3.85;;;14.30;69.50;;;;;;5016199;28;20504;-89
2022/04/15 02:46:13;;;;;;;5.70;3.60;;;14.20;69.30;;;;;;5016039;28;20053;-89
2022/04/15 02:48:38;;;;;;;6.07;3.90;;;14.30;69.30;;;;;;5006379;28;20109;-89
2022/04/15 02:51:04;;;;;;;6.22;4.15;;;14.30;69.30;;;;;;4996375;28;20061;-90
2022/04/15 02:53:33;;;;;;;8.50;4.22;;;14.30;69.40;;;;;;4997388;28;20049;-88
2022/04/15 02:55:58;;;;;;;7.68;4.68;;;14.20;69.10;;;;;;4996497;28;20022;-89
2022/04/15 02:58:24;;;;;;;6.18;4.30;;;14.20;69.30;;;;;;4996493;28;20037;-91
2022/04/15 03:00:50;;;;;;;8.55;4.70;;;14.20;69.20;;;;;;5019210;28;20034;-90
2022/04/15 03:03:16;;;;;;;6.05;4.47;;;14.10;69.40;;;;;;5011311;28;20044;-90
2022/04/15 03:05:42;;;;;;;6.22;4.80;;;14.10;69.50;;;;;;5002179;28;20477;-91
2022/04/15 03:08:08;;;;;;;6.85;4.30;;;14.10;69.60;;;;;;5001131;28;20390;-90
2022/04/15 03:10:34;;;;;;;7.85;5.18;;;14.10;69.40;;;;;;5002394;28;20027;-91
2022/04/15 03:13:00;;;;;;;6.05;3.83;;;14.10;69.20;;;;;;5002080;28;20106;-91
2022/04/15 03:15:26;;;;;;;5.13;3.97;;;14.10;69.50;;;;;;5001020;28;20051;-91
2022/04/15 03:17:52;;;;;;;5.07;4.25;;;14.10;69.10;;;;;;5003944;28;20030;-91
2022/04/15 03:20:18;;;;;;;6.80;4.70;;;14.00;68.60;;;;;;5001245;28;20019;-91
2022/04/15 03:22:44;;;;;;;4.90;3.78;;;14.00;68.80;;;;;;5003145;28;20054;-91
2022/04/15 03:25:12;;;;;;;5.05;4.10;;;14.00;68.70;;;;;;5001025;28;20100;-90
2022/04/15 03:27:38;;;;;;;6.88;4.30;;;13.90;68.90;;;;;;5007823;28;20481;-90
2022/04/15 03:30:05;;;;;;;7.93;4.32;;;13.90;68.90;;;;;;5019352;28;20034;-91
2022/04/15 03:32:31;;;;;;;5.25;3.47;;;14.00;69.00;;;;;;5020349;28;20034;-91
2022/04/15 03:34:57;;;;;;;4.30;3.70;;;13.90;68.80;;;;;;5022861;28;20037;-91
2022/04/15 03:37:23;;;;;;;5.50;3.85;;;13.90;68.70;;;;;;5001630;28;20039;-90
2022/04/15 03:39:49;;;;;;;6.65;4.07;;;13.90;69.00;;;;;;5002919;28;20488;-89
2022/04/15 03:42:15;;;;;;;5.45;4.30;;;13.80;69.10;;;;;;5000187;28;20030;-90
2022/04/15 03:44:40;;;;;;;5.55;3.83;;;13.70;69.70;;;;;;5001105;28;20125;-90
2022/04/15 03:47:07;;;;;;;4.32;3.65;;;13.70;69.40;;;;;;5015688;28;20033;-89
2022/04/15 03:49:33;;;;;;;5.25;3.80;;;13.60;69.90;;;;;;5019507;28;20058;-89
2022/04/15 03:51:59;;;;;;;5.80;4.32;;;13.70;69.40;;;;;;5021201;28;20076;-90
2022/04/15 03:54:25;;;;;;;5.45;3.60;;;13.70;68.90;;;;;;5019408;28;20030;-89
2022/04/15 03:56:51;;;;;;;6.72;3.97;;;13.70;69.00;;;;;;5020392;28;20029;-92
2022/04/15 03:59:16;;;;;;;11.23;5.38;;;13.70;68.80;;;;;;5019793;28;20026;-90
2022/04/15 04:01:42;;;;;;;11.32;6.15;;;13.70;69.00;;;;;;5020856;28;20022;-90
2022/04/15 04:04:08;;;;;;;9.90;5.65;;;13.60;69.20;;;;;;5016257;28;20460;-91
2022/04/15 04:06:34;;;;;;;8.98;5.35;;;13.50;69.60;;;;;;4999642;28;20076;-90
2022/04/15 04:08:59;;;;;;;12.05;5.70;;;13.50;69.70;;;;;;5002254;28;20034;-91
2022/04/15 04:11:25;;;;;;;5.70;4.13;;;13.40;70.00;;;;;;4999070;28;20026;-89
2022/04/15 04:13:51;;;;;;;6.30;3.63;;;13.30;69.80;;;;;;5002559;28;20030;-90
2022/04/15 04:16:18;;;;;;;7.85;4.45;;;13.30;69.90;;;;;;4998884;28;20029;-90
2022/04/15 04:18:44;;;;;;;8.80;4.53;;;13.30;70.30;;;;;;4999787;28;20027;-89
2022/04/15 04:21:10;;;;;;;6.32;4.18;;;13.30;70.10;;;;;;5015966;28;20018;-91
2022/04/15 04:23:36;;;;;;;5.10;4.05;;;13.30;70.00;;;;;;4999886;28;20026;-90
2022/04/15 04:26:03;;;;;;;5.90;4.18;;;13.40;70.10;;;;;;5001013;28;20034;-90
2022/04/15 04:28:29;;;;;;;5.07;3.63;;;13.40;69.60;;;;;;5018968;28;20033;-89
2022/04/15 04:30:54;;;;;;;4.47;3.63;;;13.40;69.40;;;;;;5020690;28;20036;-89
2022/04/15 04:33:20;;;;;;;5.68;3.88;;;13.40;69.20;;;;;;5002059;28;20034;-91
2022/04/15 04:35:52;;;;;;;6.25;4.18;;;13.40;69.00;;;;;;5006040;28;20693;-89
2022/04/15 04:38:18;;;;;;;6.60;4.28;;;13.40;69.20;;;;;;5019707;28;20037;-91
2022/04/15 04:40:45;;;;;;;5.32;4.20;;;13.30;69.50;;;;;;5017152;28;20022;-88
2022/04/15 04:43:11;;;;;;;6.10;4.35;;;13.20;71.00;;;;;;5006632;28;20058;-89
2022/04/15 04:45:37;;;;;;;9.80;5.93;;;13.30;71.20;;;;;;4998603;28;20033;-89
2022/04/15 04:48:04;;;;;;;6.25;5.28;;;13.30;70.80;;;;;;5010514;28;20431;-89
2022/04/15 04:50:31;;;;;;;5.45;4.82;;;13.20;70.70;;;;;;5018515;28;20110;-90
2022/04/15 04:52:57;;;;;;;8.48;4.97;;;13.20;70.90;;;;;;5016953;28;20046;-90
2022/04/15 04:55:22;;;;;;;7.47;5.57;;;13.10;71.20;;;;;;5018353;28;20018;-89
2022/04/15 04:57:48;;;;;;;8.13;5.70;;;13.00;71.60;;;;;;5016805;28;20022;-85
2022/04/15 05:00:16;;;;;;;7.22;5.53;;;13.00;71.50;;;;;;5015404;28;20042;-89
2022/04/15 05:02:43;;;;;;;8.90;5.10;;;12.90;71.30;;;;;;5000737;28;20040;-79
2022/04/15 05:05:10;;;;;;;6.75;5.38;;;13.00;71.10;;;;;;5015567;28;20034;-79
2022/04/15 05:07:36;;;;;;;6.50;5.20;;;12.90;71.20;;;;;;5016032;28;20037;-79
2022/04/15 05:10:04;;;;;;;6.22;5.45;;;12.80;71.80;;;;;;5036813;28;20029;-78
2022/04/15 05:12:29;;;;;;;10.07;5.72;;;12.80;71.90;;;;;;5022135;28;20034;-79
2022/04/15 05:14:55;;;;;;;10.52;5.70;;;12.70;72.10;;;;;;5006977;28;20122;-81
2022/04/15 05:17:20;;;;;;;9.65;5.43;;;12.70;72.10;;;;;;4997218;28;20089;-79
2022/04/15 05:19:46;;;;;;;8.70;5.90;;;12.70;72.60;;;;;;5036906;28;20033;-77
2022/04/15 05:22:13;;;;;;;7.90;5.65;;;12.70;72.70;;;;;;5035497;28;20029;-81
2022/04/15 05:24:38;;;;;;;8.90;5.57;;;12.80;72.80;;;;;;5006768;28;20038;-89
2022/04/15 05:27:05;;;;;;;8.52;5.70;;;12.80;72.60;;;;;;4996924;28;20460;-84
2022/04/15 05:29:32;;;;;;;7.93;5.65;;;12.90;72.20;;;;;;5007803;28;20022;-85
2022/04/15 05:31:57;;;;;;;6.47;5.10;;;12.90;72.00;;;;;;5010179;28;20026;-85
2022/04/15 05:34:23;;;;;;;6.60;4.93;;;12.90;72.10;;;;;;4996750;28;20037;-84
2022/04/15 05:36:48;;;;;;;8.18;5.75;;;12.90;71.60;;;;;;5004565;28;20029;-84
2022/04/15 05:39:15;;;;;;;7.80;6.18;;;12.80;72.50;;;;;;5028650;28;20022;-84
2022/04/15 05:41:40;;;;;;;9.40;5.28;;;12.90;72.30;;;;;;5011337;28;20028;-84
2022/04/15 05:44:08;;;;;;;6.75;5.20;;;12.80;73.00;;;;;;5009862;28;20512;-84
2022/04/15 05:46:37;;;;;;;10.27;5.43;;;12.50;74.70;;;;;;5014648;28;20116;-82
2022/04/15 05:49:13;;;;;;;11.00;5.70;;;12.60;74.60;;;;;;5005659;28;20030;-82
2022/04/15 05:51:42;;;;;;;9.07;5.40;;;12.50;75.10;;;;;;5003672;28;20034;-83
2022/04/15 05:54:08;;;;;;;8.63;5.47;;;12.60;74.40;;;;;;5016098;28;20026;-78
2022/04/15 05:56:35;;;;;;;8.80;5.65;;;12.80;74.30;;;;;;5015208;28;20037;-81
2022/04/15 05:59:00;;;;;;;8.07;5.53;;;12.70;74.80;;;;;;5004630;28;20449;-78
2022/04/15 06:01:26;;;;;;;9.18;6.25;;;12.70;74.20;;;;;;5015405;28;20026;-78
2022/04/15 06:03:51;;;;;;;9.90;5.80;;;12.80;73.90;;;;;;5011066;28;20400;-78
2022/04/15 06:06:17;;;;;;;12.23;6.07;;;12.80;74.60;;;;;;5011285;28;20065;-77
2022/04/15 06:08:43;;;;;;;9.15;6.55;;;12.80;74.10;;;;;;5014389;28;20101;-77
2022/04/15 06:11:08;;;;;;;8.27;6.90;;;12.90;74.00;;;;;;5020958;28;20036;-77
2022/04/15 06:13:34;;;;;;;7.50;5.47;;;12.90;74.10;;;;;;5029556;28;20113;-78
2022/04/15 06:16:00;;;;;;;7.20;6.25;;;13.00;73.60;;;;;;5012176;28;20066;-78
2022/04/15 06:18:34;;;;;;;8.43;6.10;;;13.00;73.80;;;;;;5009643;28;20046;-78
2022/04/15 06:21:00;;;;;;;8.35;6.10;;;13.20;73.50;;;;;;4996284;28;20030;-77
2022/04/15 06:23:27;;;;;;;8.15;6.00;;;13.00;74.50;;;;;;5007507;28;20057;-77
2022/04/15 06:25:53;;;;;;;8.68;5.90;;;13.10;74.50;;;;;;4995632;28;20022;-78
2022/04/15 06:28:21;;;;;;;10.57;6.72;;;13.10;74.70;;;;;;4996049;28;20759;-78
2022/04/15 06:30:50;;;;;;;8.82;5.97;;;13.20;74.60;;;;;;5000415;28;20049;-77
2022/04/15 06:33:17;;;;;;;8.38;6.10;;;13.20;75.00;;;;;;4993595;28;20046;-77
2022/04/15 06:38:56;;;;;;;9.23;6.50;;;13.20;75.10;;;;;;5064744;28;20437;-79
2022/04/15 06:41:21;;;;;;;9.77;6.97;;;13.20;75.40;;;;;;5051127;28;20025;-79
2022/04/15 06:43:47;;;;;;;6.85;6.10;;;13.20;75.10;;;;;;5050837;28;20029;-79
2022/04/15 06:46:13;;;;;;;7.63;5.65;;;13.30;75.30;;;;;;5050754;28;20029;-79
2022/04/15 06:48:38;;;;;;;11.35;6.65;;;13.50;75.10;;;;;;5049743;28;20040;-79
2022/04/15 06:51:07;;;;;;;7.43;6.00;;;13.70;74.20;;;;;;5050619;28;20090;-77
2022/04/15 06:53:32;;;;;;;9.45;6.55;;;13.80;74.00;;;;;;5050142;28;20431;-77
2022/04/15 06:55:58;;;;;;;7.70;5.68;;;14.00;73.40;;;;;;5050412;28;20044;-76
2022/04/15 06:58:24;;;;;;;8.20;5.82;;;14.10;73.40;;;;;;5049366;28;20032;-78
2022/04/15 07:00:52;;;;;;;7.13;5.47;;;14.20;73.30;;;;;;5050276;28;20806;-79
2022/04/15 07:03:18;;;;;;;7.05;5.20;;;14.30;73.50;;;;;;5044736;28;20032;-79
2022/04/15 07:05:44;;;;;;;9.05;5.88;;;14.30;73.60;;;;;;5049565;28;20038;-76
2022/04/15 07:08:11;;;;;;;5.68;5.07;;;14.50;73.10;;;;;;5044289;28;20014;-77
2022/04/15 07:10:40;;;;;;;8.95;5.70;;;14.60;72.40;;;;;;5049030;28;20036;-79
2022/04/15 07:13:06;;;;;;;9.07;6.65;;;14.70;72.40;;;;;;5050374;28;20028;-79
2022/04/15 07:15:32;;;;;;;8.40;5.75;;;14.80;73.30;;;;;;5049205;28;20025;-79
2022/04/15 07:17:59;;;;;;;6.90;5.20;;;14.90;71.90;;;;;;5048076;28;20513;-79
2022/04/15 07:20:25;;;;;;;8.25;5.20;;;15.30;72.10;;;;;;5049464;28;20108;-79
2022/04/15 07:22:58;;;;;;;5.70;4.47;;;15.40;71.50;;;;;;5049525;28;20049;-79
2022/04/15 07:25:25;;;;;;;6.43;4.63;;;15.60;71.00;;;;;;5049689;28;20017;-79
2022/04/15 07:27:53;;;;;;;6.00;4.47;;;15.70;70.70;;;;;;5050219;28;20029;-79
2022/04/15 07:30:19;;;;;;;6.07;4.53;;;15.80;68.70;;;;;;5050974;28;20071;-79
2022/04/15 07:32:45;;;;;;;7.45;4.65;;;16.10;67.90;;;;;;5049630;28;20085;-79
2022/04/15 07:35:10;;;;;;;6.75;4.82;;;16.60;66.90;;;;;;5050627;28;20025;-78
2022/04/15 07:37:37;;;;;;;4.13;3.72;;;17.60;63.40;;;;;;5050363;28;20404;-78
2022/04/15 07:40:03;;;;;;;4.18;3.78;;;18.30;61.80;;;;;;5048905;28;20037;-79
2022/04/15 07:42:29;;;;;;;6.28;4.10;;;18.90;59.80;;;;;;5042143;28;20053;-78
2022/04/15 07:44:55;;;;;;;4.07;2.95;;;19.90;57.70;;;;;;5032709;28;20022;-79
2022/04/15 07:47:20;;;;;;;5.25;3.78;;;21.10;53.90;;;;;;5049710;28;20025;-79
2022/04/15 07:49:46;;;;;;;5.05;3.28;;;21.80;52.40;;;;;;5040465;28;20670;-80
2022/04/15 07:52:12;;;;;;;6.63;3.50;;;23.80;46.40;;;;;;5037110;28;20447;-80
2022/04/15 07:54:37;;;;;;;4.53;3.13;;;26.00;41.20;;;;;;5036839;28;20036;-80
2022/04/15 07:57:03;;;;;;;4.72;3.20;;;27.60;39.80;;;;;;5036968;28;20061;-80
2022/04/15 07:59:29;;;;;;;3.85;3.10;;;28.30;36.30;;;;;;5050209;28;20021;-80
2022/04/15 08:01:55;;;;;;;4.50;2.80;;;29.00;34.10;;;;;;5036664;28;20155;-81
2022/04/15 08:04:21;;;;;;;5.30;3.40;;;29.90;34.20;;;;;;5037016;28;20049;-81
2022/04/15 08:06:47;;;;;;;3.95;2.97;;;30.50;32.50;;;;;;5036459;28;20105;-81
2022/04/15 08:09:13;;;;;;;5.68;3.05;;;30.90;32.00;;;;;;5037102;28;20032;-81
2022/04/15 08:11:38;;;;;;;5.75;3.10;;;31.70;31.70;;;;;;5045576;28;20040;-81
2022/04/15 08:14:04;;;;;;;4.78;3.30;;;31.70;29.50;;;;;;5036742;28;20034;-81
2022/04/15 08:16:30;;;;;;;3.83;3.00;;;31.70;29.90;;;;;;5037447;28;20030;-81
2022/04/15 08:18:56;;;;;;;4.13;2.80;;;31.70;30.20;;;;;;5035908;28;20033;-81
2022/04/15 08:21:23;;;;;;;4.93;3.13;;;32.00;29.70;;;;;;5037376;28;20037;-81
2022/04/15 08:23:49;;;;;;;4.50;2.65;;;32.30;29.40;;;;;;5037268;28;20495;-81
2022/04/15 08:26:15;;;;;;;4.68;2.60;;;32.20;29.00;;;;;;5035614;28;20029;-81
2022/04/15 08:28:41;;;;;;;4.00;2.40;;;32.20;29.60;;;;;;5052365;28;20040;-81
2022/04/15 08:31:07;;;;;;;4.05;3.00;;;32.20;29.70;;;;;;5050056;28;20017;-81
2022/04/15 08:33:34;;;;;;;6.03;2.63;;;32.60;28.80;;;;;;5036914;28;20448;-81
2022/04/15 08:35:59;;;;;;;4.35;2.80;;;32.80;27.90;;;;;;5036024;28;20028;-81
2022/04/15 08:38:25;;;;;;;4.00;2.58;;;33.00;28.10;;;;;;5036273;28;20611;-81
2022/04/15 08:40:58;;;;;;;4.85;3.17;;;33.00;28.50;;;;;;5036040;28;20040;-81
2022/04/15 08:43:25;;;;;;;6.25;2.97;;;33.00;27.80;;;;;;5064540;28;20033;-80
2022/04/15 08:45:51;;;;;;;3.60;2.58;;;32.90;29.10;;;;;;5035279;28;20468;-81
2022/04/15 08:48:17;;;;;;;5.57;3.13;;;33.50;28.50;;;;;;5038933;28;20073;-81
2022/04/15 08:50:43;;;;;;;4.03;2.80;;;33.60;28.30;;;;;;5051954;28;20835;-81
2022/04/15 08:53:09;;;;;;;4.35;2.47;;;33.50;28.60;;;;;;5045513;28;20099;-81
2022/04/15 08:55:34;;;;;;;6.03;3.10;;;33.30;28.40;;;;;;5035958;28;20120;-81
2022/04/15 08:58:00;;;;;;;4.88;2.83;;;33.60;28.80;;;;;;5051358;28;20111;-81
2022/04/15 09:00:27;;;;;;;4.18;2.60;;;33.50;28.50;;;;;;5034246;28;20029;-81
2022/04/15 09:02:54;;;;;;;5.63;2.58;;;33.50;28.20;;;;;;5051561;28;20026;-80
2022/04/15 09:05:24;;;;;;;3.38;2.83;;;33.10;28.40;;;;;;5036167;28;20500;-81
2022/04/15 09:08:01;;;;;;;3.45;2.50;;;32.70;28.10;;;;;;5035637;28;20033;-81
2022/04/15 09:10:27;;;;;;;5.03;2.83;;;32.80;29.00;;;;;;5034029;28;20029;-81
2022/04/15 09:12:52;;;;;;;3.20;2.50;;;33.10;28.40;;;;;;5016456;28;20022;-81
2022/04/15 09:15:18;;;;;;;3.67;2.28;;;32.90;29.10;;;;;;5024170;28;20030;-81
2022/04/15 09:17:47;;;;;;;2.60;2.40;;;32.70;30.20;;;;;;5035878;28;20060;-80
2022/04/15 09:20:13;;;;;;;4.65;2.90;;;33.00;29.50;;;;;;5035932;28;20021;-80
2022/04/15 09:22:39;;;;;;;5.97;2.70;;;33.50;29.40;;;;;;5035193;28;20037;-80
2022/04/15 09:25:06;;;;;;;4.72;3.10;;;33.60;28.80;;;;;;5050940;28;20036;-80
2022/04/15 09:27:35;;;;;;;3.92;2.58;;;33.60;28.50;;;;;;5035063;28;20152;-80
2022/04/15 09:30:02;;;;;;;4.57;2.97;;;34.00;28.50;;;;;;5035466;28;20480;-80
2022/04/15 09:32:29;;;;;;;3.00;2.70;;;34.10;28.30;;;;;;5035456;28;20033;-80
2022/04/15 09:34:57;;;;;;;5.30;2.65;;;34.30;27.90;;;;;;5035504;28;20056;-80
2022/04/15 09:37:29;;;;;;;3.50;2.30;;;34.40;27.50;;;;;;5034520;28;20045;-79
2022/04/15 09:40:06;;;;;;;9.23;4.35;;;34.90;27.40;;;;;;5050841;28;20500;-80
2022/04/15 09:42:36;;;;;;;6.50;2.08;;;34.90;27.80;;;;;;5035281;28;20100;-80
2022/04/15 09:45:17;;;;;;;3.50;2.10;;;34.70;27.50;;;;;;5035433;28;20030;-80
2022/04/15 09:47:43;;;;;;;3.30;1.80;;;34.70;26.80;;;;;;5039326;28;20029;-80
2022/04/15 09:50:34;;;;;;;3.55;2.30;;;34.10;28.30;;;;;;5034511;28;20057;-83
2022/04/15 09:53:12;;;;;;;3.25;2.00;;;34.80;27.80;;;;;;5031079;28;20022;-80
2022/04/15 09:55:43;;;;;;;2.28;1.83;;;34.70;26.40;;;;;;5032809;28;20049;-80
2022/04/15 09:58:13;;;;;;;2.50;1.90;;;34.30;27.30;;;;;;5035009;28;20057;-80
2022/04/15 10:00:40;;;;;;;4.13;1.90;;;34.70;27.70;;;;;;5034213;28;20546;-80
2022/04/15 10:03:14;;;;;;;4.05;2.10;;;35.10;26.90;;;;;;5029846;28;20034;-80
2022/04/15 10:05:41;;;;;;;2.65;2.00;;;35.00;26.50;;;;;;5034370;28;20025;-80
2022/04/15 10:08:09;;;;;;;3.15;2.00;;;34.80;27.10;;;;;;5034177;28;20470;-79
2022/04/15 10:10:36;;;;;;;3.88;1.60;;;34.70;26.90;;;;;;5034377;28;20021;-80
2022/04/15 10:13:03;;;;;;;2.72;1.77;;;34.20;27.80;;;;;;5033012;28;20072;-80
2022/04/15 10:15:30;;;;;;;3.60;1.90;;;34.30;27.20;;;;;;5033084;28;20022;-80
2022/04/15 10:18:00;;;;;;;4.57;2.35;;;33.50;27.10;;;;;;5034501;28;20499;-80
2022/04/15 10:20:31;;;;;;;3.40;1.65;;;33.30;28.60;;;;;;5039893;28;20021;-80
2022/04/15 10:23:04;;;;;;;3.00;1.80;;;33.10;27.40;;;;;;5034711;28;20037;-80
2022/04/15 10:25:30;;;;;;;4.40;1.80;;;32.60;29.00;;;;;;5034269;28;20491;-80
2022/04/15 10:28:16;;;;;;;2.55;1.75;;;31.20;30.80;;;;;;5034463;28;20033;-80
2022/04/15 10:30:52;;;;;;;3.40;1.77;;;30.30;31.60;;;;;;5032808;28;20118;-79
2022/04/15 10:33:29;;;;;;;6.18;2.13;;;29.30;33.70;;;;;;5041166;28;20025;-80
2022/04/15 10:36:11;;;;;;;3.80;1.67;;;28.70;35.10;;;;;;5033843;28;20029;-80
2022/04/15 10:38:37;;;;;;;5.07;1.30;;;28.30;35.70;;;;;;5034249;28;20080;-79
2022/04/15 10:41:15;;;;;;;2.25;1.20;;;28.00;36.90;;;;;;5033988;28;20037;-79
2022/04/15 10:43:56;;;;;;;3.33;1.75;;;27.70;35.60;;;;;;5031156;28;20388;-79
2022/04/15 10:46:31;;;;;;;2.58;1.77;;;27.50;37.10;;;;;;5034235;28;20033;-79
2022/04/15 10:48:58;;;;;;;2.63;1.73;;;27.20;37.50;;;;;;5033202;28;20028;-79
2022/04/15 10:51:29;;;;;;;3.25;2.00;;;27.00;37.80;;;;;;5034382;28;20487;-79
2022/04/15 10:53:55;;;;;;;4.65;1.77;;;26.80;36.80;;;;;;5034202;28;20032;-79
2022/04/15 10:56:23;;;;;;;2.67;1.40;;;26.80;38.20;;;;;;5034506;28;20033;-85
2022/04/15 11:02:57;;;;;;;2.28;1.30;;;26.70;39.40;;;;;;5094506;27;1462084;-84
2022/04/15 11:05:46;;;;;;;2.58;1.52;;;26.50;38.20;;;;;;5116965;28;20059;-84
2022/04/15 11:08:17;;;;;;;2.07;0.97;;;26.50;37.90;;;;;;5109307;28;20044;-86
2022/04/15 11:11:07;;;;;;;3.72;1.17;;;26.40;37.30;;;;;;5116649;28;20250;-85
2022/04/15 11:13:43;;;;;;;2.22;1.30;;;26.50;39.60;;;;;;5133292;27;20106;-82
2022/04/15 11:16:10;;;;;;;4.35;1.70;;;26.70;37.10;;;;;;5132151;27;20019;-81
2022/04/15 11:18:55;;;;;;;5.72;1.80;;;26.60;37.00;;;;;;5123234;28;20056;-80
2022/04/15 11:21:37;;;;;;;3.83;1.38;;;26.70;36.60;;;;;;5115120;27;20436;-81
2022/04/15 11:24:09;;;;;;;2.65;1.08;;;26.40;36.70;;;;;;5112269;28;20065;-84
2022/04/15 11:26:37;;;;;;;1.50;0.80;;;26.40;35.60;;;;;;5111061;28;20028;-82
2022/04/15 11:29:05;;;;;;;3.15;1.40;;;26.30;35.10;;;;;;5115476;28;20098;-83
2022/04/15 11:31:36;;;;;;;4.25;1.20;;;26.30;35.20;;;;;;5131639;28;20551;-83
2022/04/15 11:34:11;;;;;;;3.28;1.15;;;26.40;36.10;;;;;;5122014;27;20026;-80
2022/04/15 11:36:42;;;;;;;2.70;1.38;;;26.40;36.70;;;;;;5112048;28;20064;-79
2022/04/15 11:39:11;;;;;;;3.60;1.48;;;26.50;36.00;;;;;;5117678;28;20096;-80
2022/04/15 11:41:45;;;;;;;4.13;1.53;;;26.60;35.60;;;;;;5117893;27;20032;-77
2022/04/15 11:44:11;;;;;;;2.17;1.27;;;26.50;36.00;;;;;;5111934;28;20439;-76
2022/04/15 11:46:38;;;;;;;2.15;1.23;;;26.40;35.60;;;;;;5112023;28;20085;-78
2022/04/15 11:49:11;;;;;;;3.42;2.10;;;26.30;36.00;;;;;;5112489;27;20083;-78
2022/04/15 11:51:37;;;;;;;5.15;2.17;;;26.10;36.50;;;;;;5141070;27;20023;-78
2022/04/15 11:54:02;;;;;;;3.08;1.70;;;26.20;37.00;;;;;;5142253;27;20019;-78
2022/04/15 11:56:29;;;;;;;2.97;1.60;;;26.10;37.60;;;;;;5139417;27;20058;-78
2022/04/15 11:58:57;;;;;;;2.47;1.10;;;25.80;37.10;;;;;;5142104;27;20146;-78
2022/04/15 12:01:31;;;;;;;3.13;1.60;;;25.80;36.50;;;;;;5138864;27;20044;-78
2022/04/15 12:04:00;;;;;;;6.28;1.80;;;25.60;36.30;;;;;;5136511;27;20045;-78
2022/04/15 12:06:27;;;;;;;2.55;1.23;;;25.30;36.60;;;;;;5140391;27;20038;-78
2022/04/15 12:08:53;;;;;;;1.92;0.98;;;25.70;37.80;;;;;;5141534;27;20019;-78
2022/04/15 12:11:24;;;;;;;3.13;1.30;;;25.90;38.50;;;;;;5140922;27;20027;-77
2022/04/15 12:13:57;;;;;;;2.63;1.63;;;26.10;37.40;;;;;;5117049;27;20047;-78
2022/04/15 12:16:24;;;;;;;6.85;2.00;;;26.00;35.10;;;;;;5111435;27;20043;-78
2022/04/15 12:18:51;;;;;;;3.47;1.45;;;26.00;35.40;;;;;;5127745;27;20025;-76
2022/04/15 12:21:18;;;;;;;2.75;1.58;;;26.00;37.10;;;;;;5133965;27;20110;-77
2022/04/15 12:24:07;;;;;;;3.55;1.25;;;26.40;36.10;;;;;;5130975;27;20481;-78
2022/04/15 12:26:50;;;;;;;4.15;2.28;;;26.50;35.70;;;;;;5126859;27;20027;-78
2022/04/15 12:32:25;;;;;;;2.72;1.10;;;26.90;35.30;;;;;;5124546;27;20101;-78
2022/04/15 12:34:59;;;;;;;5.63;1.33;;;27.10;35.20;;;;;;5124337;27;20059;-78
2022/04/15 12:37:57;;;;;;;2.28;1.00;;;27.30;36.40;;;;;;5125388;27;20032;-78
2022/04/15 12:40:25;;;;;;;1.75;0.95;;;27.30;31.90;;;;;;5123644;27;20027;-78
2022/04/15 12:42:53;;;;;;;2.70;0.95;;;27.30;32.90;;;;;;5126764;27;20047;-78
2022/04/15 12:45:21;;;;;;;3.58;1.00;;;26.80;32.30;;;;;;5124622;27;20389;-78
2022/04/15 12:48:03;;;;;;;2.60;0.90;;;26.10;32.90;;;;;;5124774;27;20417;-79
2022/04/15 12:50:35;;;;;;;2.03;1.13;;;26.40;33.00;;;;;;5119912;27;20025;-78
2022/04/15 12:53:12;;;;;;;3.00;1.10;;;26.40;33.40;;;;;;5111708;27;20040;-78
2022/04/15 12:55:38;;;;;;;2.10;1.10;;;26.30;33.20;;;;;;5112222;27;20027;-78
2022/04/15 12:58:18;;;;;;;2.65;1.02;;;26.10;32.20;;;;;;5121167;27;20508;-78
2022/04/15 13:00:43;;;;;;;;;;;26.10;32.60;;;;;;5127437;27;20031;-78